createdAt,value
2023-05-05T00:00:59.079Z,4.93
2023-05-05T00:03:26.351Z,4.78
2023-05-05T00:05:57.654Z,4.60
2023-05-05T00:08:24.704Z,4.70
2023-05-05T00:10:52.997Z,4.75
2023-05-05T00:13:20.869Z,4.45
2023-05-05T00:15:49.886Z,4.62
2023-05-05T00:18:18.332Z,4.87
2023-05-05T00:20:47.549Z,4.68
2023-05-05T00:23:15.471Z,4.62
2023-05-05T00:25:42.408Z,4.57
2023-05-05T00:28:09.271Z,4.53
2023-05-05T00:30:36.537Z,5.60
2023-05-05T00:33:03.566Z,4.28
2023-05-05T00:35:30.523Z,4.55
2023-05-05T00:37:57.380Z,4.28
2023-05-05T00:40:25.420Z,4.75
2023-05-05T00:42:52.540Z,4.20
2023-05-05T00:45:20.558Z,4.47
2023-05-05T00:47:53.566Z,4.95
2023-05-05T00:50:30.937Z,4.22
2023-05-05T00:55:29.189Z,4.55
2023-05-05T00:57:57.405Z,4.50
2023-05-05T01:00:24.595Z,5.10
2023-05-05T01:02:52.784Z,5.15
2023-05-05T01:05:20.933Z,4.78
2023-05-05T01:08:15.395Z,5.40
2023-05-05T01:10:49.338Z,4.70
2023-05-05T01:13:28.346Z,5.28
2023-05-05T01:16:13.511Z,5.25
2023-05-05T01:19:02.625Z,4.40
2023-05-05T01:21:32.834Z,4.45
2023-05-05T01:24:21.206Z,4.53
2023-05-05T01:27:27.363Z,4.93
2023-05-05T01:30:31.366Z,4.50
2023-05-05T01:33:04.283Z,4.72
2023-05-05T01:35:36.406Z,4.60
2023-05-05T01:38:10.047Z,5.05
2023-05-05T01:40:45.654Z,4.53
2023-05-05T01:43:14.092Z,4.50
2023-05-05T01:45:43.143Z,4.37
2023-05-05T01:48:12.681Z,4.18
2023-05-05T01:50:41.868Z,4.47
2023-05-05T01:53:09.815Z,4.62
2023-05-05T01:55:38.822Z,4.47
2023-05-05T01:58:07.810Z,4.78
2023-05-05T02:00:35.024Z,4.97
2023-05-05T02:03:04.599Z,4.18
2023-05-05T02:05:33.168Z,4.62
2023-05-05T02:08:00.656Z,4.85
2023-05-05T02:10:28.380Z,4.87
2023-05-05T02:12:55.848Z,4.75
2023-05-05T02:15:23.836Z,4.12
2023-05-05T02:17:53.033Z,4.32
2023-05-05T02:20:20.944Z,4.65
2023-05-05T02:22:47.824Z,4.45
2023-05-05T02:25:14.985Z,4.50
2023-05-05T02:27:43.593Z,4.75
2023-05-05T02:30:12.525Z,4.82
2023-05-05T02:32:50.678Z,4.65
2023-05-05T02:35:21.256Z,4.65
2023-05-05T02:37:51.919Z,4.70
2023-05-05T02:40:23.214Z,4.82
2023-05-05T02:42:53.819Z,5.40
2023-05-05T02:45:22.025Z,5.28
2023-05-05T02:47:49.380Z,5.20
2023-05-05T02:50:16.298Z,4.72
2023-05-05T02:52:43.580Z,4.70
2023-05-05T02:55:11.126Z,4.28
2023-05-05T02:57:48.001Z,3.97
2023-05-05T03:00:52.481Z,4.25
2023-05-05T03:03:47.634Z,4.50
2023-05-05T03:06:17.922Z,4.43
2023-05-05T03:08:52.185Z,3.85
2023-05-05T03:11:26.952Z,4.70
2023-05-05T03:14:04.908Z,4.37
2023-05-05T03:16:32.602Z,4.65
2023-05-05T03:19:00.029Z,4.28
2023-05-05T03:21:27.001Z,4.40
2023-05-05T03:23:53.880Z,4.03
2023-05-05T03:26:20.738Z,4.60
2023-05-05T03:28:47.585Z,5.78
2023-05-05T03:31:14.784Z,7.80
2023-05-05T03:33:41.666Z,7.20
2023-05-05T03:36:08.612Z,8.38
2023-05-05T03:38:35.482Z,8.57
2023-05-05T03:41:03.734Z,8.70
2023-05-05T03:43:30.664Z,7.60
2023-05-05T03:45:57.527Z,6.43
2023-05-05T03:48:24.469Z,5.60
2023-05-05T03:50:51.302Z,5.55
2023-05-05T03:53:18.117Z,3.80
2023-05-05T03:55:45.020Z,4.15
2023-05-05T03:58:11.849Z,4.35
2023-05-05T04:00:38.750Z,4.80
2023-05-05T04:03:06.086Z,4.85
2023-05-05T04:05:32.954Z,4.85
2023-05-05T04:07:59.977Z,4.22
2023-05-05T04:10:27.505Z,4.87
2023-05-05T04:12:54.417Z,4.62
2023-05-05T04:15:21.359Z,4.95
2023-05-05T04:17:48.225Z,5.37
2023-05-05T04:20:15.119Z,5.40
2023-05-05T04:22:41.970Z,5.62
2023-05-05T04:25:09.358Z,5.55
2023-05-05T04:27:36.302Z,5.55
2023-05-05T04:30:03.355Z,5.70
2023-05-05T04:32:30.396Z,5.43
2023-05-05T04:34:57.265Z,6.50
2023-05-05T04:37:25.386Z,6.50
2023-05-05T04:39:52.586Z,7.07
2023-05-05T04:42:19.478Z,6.93
2023-05-05T04:44:46.406Z,6.90
2023-05-05T04:47:14.692Z,5.53
2023-05-05T04:49:41.793Z,5.47
2023-05-05T04:52:08.689Z,5.50
2023-05-05T04:54:37.068Z,5.65
2023-05-05T04:57:04.246Z,5.25
2023-05-05T04:59:31.151Z,5.87
2023-05-05T05:01:58.090Z,6.22
2023-05-05T05:04:26.090Z,5.72
2023-05-05T05:06:53.184Z,5.68
2023-05-05T05:09:20.036Z,6.20
2023-05-05T05:11:46.825Z,5.80
2023-05-05T05:14:13.626Z,5.50
2023-05-05T05:16:40.544Z,5.30
2023-05-05T05:19:07.419Z,5.68
2023-05-05T05:21:34.274Z,5.32
2023-05-05T05:24:01.124Z,5.00
2023-05-05T05:26:28.177Z,5.00
2023-05-05T05:28:55.008Z,5.32
2023-05-05T05:31:21.952Z,5.37
2023-05-05T05:33:48.781Z,5.47
2023-05-05T05:36:15.985Z,5.50
2023-05-05T05:38:42.848Z,5.53
2023-05-05T05:41:09.687Z,5.45
2023-05-05T05:43:36.522Z,6.05
2023-05-05T05:46:03.438Z,5.80
2023-05-05T05:48:30.344Z,6.00
2023-05-05T05:50:57.300Z,5.60
2023-05-05T05:53:24.147Z,5.95
2023-05-05T05:55:51.019Z,5.35
2023-05-05T05:58:18.615Z,6.12
2023-05-05T06:00:45.625Z,5.97
2023-05-05T06:03:12.693Z,5.85
2023-05-05T06:05:39.804Z,6.45
2023-05-05T06:08:06.642Z,6.40
2023-05-05T06:10:33.895Z,6.78
2023-05-05T06:13:01.049Z,6.62
2023-05-05T06:15:27.996Z,6.35
2023-05-05T06:17:54.926Z,6.80
2023-05-05T06:20:21.893Z,6.80
2023-05-05T06:22:48.725Z,6.80
2023-05-05T06:25:15.786Z,7.85
2023-05-05T06:27:42.844Z,7.12
2023-05-05T06:30:10.544Z,7.12
2023-05-05T06:32:37.960Z,6.93
2023-05-05T06:35:05.260Z,7.20
2023-05-05T06:37:32.137Z,7.18
2023-05-05T06:39:59.488Z,7.15
2023-05-05T06:42:26.289Z,7.15
2023-05-05T06:44:53.234Z,7.40
2023-05-05T06:47:20.248Z,6.87
2023-05-05T06:49:47.119Z,7.05
2023-05-05T06:52:13.958Z,7.32
2023-05-05T06:54:40.827Z,7.35
2023-05-05T06:57:07.718Z,7.43
2023-05-05T06:59:34.574Z,7.30
2023-05-05T07:02:01.419Z,7.07
2023-05-05T07:04:28.361Z,6.55
2023-05-05T07:06:55.456Z,6.57
2023-05-05T07:09:22.296Z,7.53
2023-05-05T07:11:49.195Z,6.55
2023-05-05T07:14:16.070Z,6.78
2023-05-05T07:16:42.967Z,7.62
2023-05-05T07:19:09.939Z,7.28
2023-05-05T07:21:36.921Z,6.28
2023-05-05T07:24:04.252Z,6.07
2023-05-05T07:26:31.328Z,6.30
2023-05-05T07:28:59.177Z,6.05
2023-05-05T07:31:26.746Z,10.07
2023-05-05T07:33:53.891Z,6.78
2023-05-05T07:36:20.990Z,6.15
2023-05-05T07:38:47.933Z,5.78
2023-05-05T07:41:14.754Z,5.80
2023-05-05T07:43:44.250Z,7.45
2023-05-05T07:46:12.073Z,6.18
2023-05-05T07:48:41.501Z,5.80
2023-05-05T07:51:08.970Z,5.80
2023-05-05T07:53:35.884Z,5.70
2023-05-05T07:56:02.931Z,5.57
2023-05-05T07:58:29.783Z,5.43
2023-05-05T08:00:56.709Z,4.47
2023-05-05T08:03:25.069Z,4.80
2023-05-05T08:05:54.432Z,4.60
2023-05-05T08:08:27.060Z,4.45
2023-05-05T08:10:54.655Z,4.53
2023-05-05T08:13:21.518Z,4.87
2023-05-05T08:15:48.379Z,4.82
2023-05-05T08:18:15.524Z,4.22
2023-05-05T08:20:45.041Z,4.80
2023-05-05T08:23:11.965Z,4.95
2023-05-05T08:25:38.798Z,4.43
2023-05-05T08:28:05.638Z,4.90
2023-05-05T08:30:32.492Z,5.25
2023-05-05T08:33:00.354Z,5.20
2023-05-05T08:35:27.245Z,4.43
2023-05-05T08:37:57.272Z,5.00
2023-05-05T08:40:30.600Z,3.80
2023-05-05T08:42:57.437Z,4.62
2023-05-05T08:45:24.399Z,3.60
2023-05-05T08:47:51.336Z,4.00
2023-05-05T08:50:20.016Z,3.50
2023-05-05T08:52:49.189Z,3.65
2023-05-05T08:55:25.717Z,4.50
2023-05-05T08:57:55.162Z,5.10
2023-05-05T09:00:22.475Z,4.37
2023-05-05T09:02:49.676Z,4.53
2023-05-05T09:05:18.235Z,4.68
2023-05-05T09:07:45.415Z,4.65
2023-05-05T09:10:12.900Z,4.90
2023-05-05T09:12:40.598Z,4.90
2023-05-05T09:15:12.568Z,4.57
2023-05-05T09:17:40.264Z,4.05
2023-05-05T09:20:09.987Z,5.07
2023-05-05T09:22:46.779Z,4.60
2023-05-05T09:27:46.681Z,4.18
2023-05-05T09:30:18.311Z,4.50
2023-05-05T09:32:50.735Z,4.20
2023-05-05T09:35:18.793Z,3.97
2023-05-05T09:37:46.047Z,4.22
2023-05-05T09:40:18.356Z,3.85
2023-05-05T09:42:45.369Z,3.67
2023-05-05T09:45:18.648Z,3.90
2023-05-05T09:47:47.277Z,3.50
2023-05-05T09:50:16.364Z,3.35
2023-05-05T09:52:43.418Z,3.70
2023-05-05T09:55:19.208Z,3.28
2023-05-05T09:57:47.539Z,3.42
2023-05-05T10:00:14.946Z,3.42
2023-05-05T10:02:42.194Z,3.85
2023-05-05T10:05:14.824Z,3.60
2023-05-05T10:07:43.874Z,3.30
2023-05-05T10:10:16.510Z,3.58
2023-05-05T10:12:44.209Z,3.42
2023-05-05T10:15:12.163Z,4.03
2023-05-05T10:18:02.439Z,3.70
2023-05-05T10:20:33.684Z,3.42
2023-05-05T10:23:01.609Z,3.55
2023-05-05T10:25:35.711Z,3.75
2023-05-05T10:28:06.435Z,3.30
2023-05-05T10:30:37.295Z,3.20
2023-05-05T10:33:30.318Z,3.00
2023-05-05T10:35:58.373Z,3.30
2023-05-05T10:38:26.824Z,3.00
2023-05-05T10:40:54.741Z,2.80
2023-05-05T10:43:21.686Z,2.80
2023-05-05T10:45:48.752Z,3.30
2023-05-05T10:48:40.796Z,2.83
2023-05-05T10:51:38.384Z,2.60
2023-05-05T10:54:14.313Z,3.12
2023-05-05T10:56:42.496Z,3.35
2023-05-05T11:00:06.661Z,3.20
2023-05-05T11:02:34.225Z,2.90
2023-05-05T11:05:14.457Z,2.90
2023-05-05T11:07:42.516Z,2.72
2023-05-05T11:10:23.744Z,2.87
2023-05-05T11:13:00.233Z,2.85
2023-05-05T11:15:30.396Z,2.70
2023-05-05T11:17:58.401Z,2.80
2023-05-05T11:20:40.560Z,2.70
2023-05-05T11:23:07.490Z,2.70
2023-05-05T11:25:37.845Z,3.00
2023-05-05T11:28:14.444Z,2.55
2023-05-05T11:30:59.782Z,3.15
2023-05-05T11:33:37.847Z,3.00
2023-05-05T11:36:07.176Z,2.62
2023-05-05T11:38:59.263Z,3.20
2023-05-05T11:41:32.192Z,3.15
2023-05-05T11:44:31.950Z,3.37
2023-05-05T11:47:02.035Z,3.20
2023-05-05T11:49:33.442Z,2.87
2023-05-05T11:52:04.195Z,2.70
2023-05-05T12:06:56.529Z,3.03
2023-05-05T12:09:25.645Z,3.10
2023-05-05T12:11:57.079Z,2.83
2023-05-05T12:14:25.248Z,2.85
2023-05-05T12:17:01.699Z,2.92
2023-05-05T12:19:54.034Z,2.70
2023-05-05T12:22:23.349Z,2.65
2023-05-05T12:30:28.068Z,2.80
2023-05-05T12:33:08.523Z,2.90
2023-05-05T12:38:09.949Z,3.17
2023-05-05T12:40:49.836Z,3.20
2023-05-05T12:43:30.195Z,2.83
2023-05-05T12:46:05.575Z,3.20
2023-05-05T12:48:33.348Z,3.03
2023-05-05T13:03:06.379Z,3.05
2023-05-05T13:17:45.347Z,3.30
2023-05-05T13:20:12.665Z,2.97
2023-05-05T13:22:42.771Z,2.87
2023-05-05T13:25:10.103Z,2.90
2023-05-05T13:27:38.103Z,3.40
2023-05-05T13:30:41.599Z,2.72
2023-05-05T13:33:08.894Z,3.17
2023-05-05T13:35:39.108Z,3.03
2023-05-05T13:43:30.137Z,2.83
2023-05-05T13:46:05.622Z,2.92
2023-05-05T13:48:35.711Z,3.10
2023-05-05T13:51:02.635Z,3.10
2023-05-05T13:53:29.494Z,3.20
2023-05-05T13:55:57.519Z,3.30
2023-05-05T13:58:24.414Z,2.92
2023-05-05T14:00:51.798Z,3.35
2023-05-05T14:03:18.646Z,3.37
2023-05-05T14:05:46.355Z,3.55
2023-05-05T14:08:13.767Z,3.37
2023-05-05T14:10:40.664Z,3.20
2023-05-05T14:13:07.584Z,3.15
2023-05-05T14:15:35.608Z,3.33
2023-05-05T14:18:02.558Z,3.00
2023-05-05T14:20:29.490Z,3.28
2023-05-05T14:22:56.568Z,2.90
2023-05-05T14:25:23.568Z,3.20
2023-05-05T14:27:50.963Z,2.95
2023-05-05T14:30:17.806Z,3.20
2023-05-05T14:32:44.781Z,2.90
2023-05-05T14:35:11.706Z,3.20
2023-05-05T14:37:38.575Z,2.90
2023-05-05T14:40:06.923Z,2.90
2023-05-05T14:42:33.868Z,2.95
2023-05-05T14:45:00.780Z,3.42
2023-05-05T14:47:27.650Z,2.90
2023-05-05T14:49:54.500Z,2.62
2023-05-05T14:52:21.357Z,3.10
2023-05-05T14:54:48.177Z,3.25
2023-05-05T14:57:15.079Z,3.00
2023-05-05T14:59:41.897Z,3.50
2023-05-05T15:02:08.742Z,3.72
2023-05-05T15:04:35.635Z,3.30
2023-05-05T15:07:02.502Z,3.03
2023-05-05T15:09:29.356Z,3.33
2023-05-05T15:11:56.219Z,3.20
2023-05-05T15:14:23.085Z,3.28
2023-05-05T15:16:50.018Z,2.60
2023-05-05T15:19:17.126Z,3.05
2023-05-05T15:21:43.957Z,3.17
2023-05-05T15:24:10.943Z,3.90
2023-05-05T15:26:37.763Z,3.90
2023-05-05T15:29:04.613Z,3.55
2023-05-05T15:31:31.523Z,3.37
2023-05-05T15:33:58.372Z,3.30
2023-05-05T15:36:25.220Z,2.85
2023-05-05T15:38:52.217Z,3.22
2023-05-05T15:41:19.101Z,3.37
2023-05-05T15:43:45.999Z,3.47
2023-05-05T15:46:12.884Z,3.60
2023-05-05T15:48:39.748Z,3.85
2023-05-05T15:51:06.627Z,3.47
2023-05-05T15:53:34.022Z,3.30
2023-05-05T15:56:00.930Z,3.30
2023-05-05T15:58:27.784Z,3.08
2023-05-05T16:00:54.707Z,3.45
2023-05-05T16:03:21.739Z,3.50
2023-05-05T16:05:48.717Z,3.05
2023-05-05T16:08:15.576Z,3.47
2023-05-05T16:10:42.526Z,3.20
2023-05-05T16:13:09.451Z,3.15
2023-05-05T16:15:36.492Z,3.92
2023-05-05T16:18:03.361Z,3.37
2023-05-05T16:20:30.242Z,3.17
2023-05-05T16:22:57.768Z,3.40
2023-05-05T16:25:24.631Z,3.47
2023-05-05T16:27:52.133Z,3.75
2023-05-05T16:30:19.041Z,3.35
2023-05-05T16:32:47.477Z,3.37
2023-05-05T16:35:14.378Z,3.65
2023-05-05T16:37:41.252Z,3.40
2023-05-05T16:40:08.934Z,3.53
2023-05-05T16:42:35.776Z,3.10
2023-05-05T16:45:02.659Z,3.80
2023-05-05T16:47:29.761Z,3.87
2023-05-05T16:49:56.775Z,3.67
2023-05-05T16:52:23.690Z,3.97
2023-05-05T16:54:55.616Z,3.65
2023-05-05T16:57:23.383Z,3.67
2023-05-05T16:59:50.581Z,4.30
2023-05-05T17:02:17.437Z,4.28
2023-05-05T17:04:44.322Z,4.87
2023-05-05T17:07:11.220Z,6.00
2023-05-05T17:09:38.080Z,4.60
2023-05-05T17:12:05.296Z,4.80
2023-05-05T17:14:33.711Z,4.62
2023-05-05T17:17:00.700Z,4.57
2023-05-05T17:19:27.550Z,4.80
2023-05-05T17:21:55.320Z,4.40
2023-05-05T17:24:22.756Z,4.25
2023-05-05T17:26:50.237Z,4.70
2023-05-05T17:29:19.967Z,4.65
2023-05-05T17:31:47.172Z,4.68
2023-05-05T17:34:14.041Z,5.30
2023-05-05T17:36:41.133Z,4.70
2023-05-05T17:39:08.204Z,4.45
2023-05-05T17:41:35.201Z,4.60
2023-05-05T17:44:02.058Z,5.12
2023-05-05T17:46:29.122Z,4.80
2023-05-05T17:48:56.120Z,4.82
2023-05-05T17:51:23.042Z,5.43
2023-05-05T17:53:49.880Z,5.65
2023-05-05T17:56:16.785Z,4.80
2023-05-05T17:58:43.617Z,5.37
2023-05-05T18:01:13.686Z,6.15
2023-05-05T18:03:41.213Z,6.20
2023-05-05T18:06:08.181Z,6.80
2023-05-05T18:08:35.030Z,5.85
2023-05-05T18:11:02.010Z,5.30
2023-05-05T18:13:28.878Z,4.55
2023-05-05T18:15:55.849Z,5.03
2023-05-05T18:18:23.470Z,4.87
2023-05-05T18:20:50.433Z,4.50
2023-05-05T18:23:17.341Z,4.97
2023-05-05T18:25:44.184Z,5.35
2023-05-05T18:28:11.143Z,5.75
2023-05-05T18:30:38.043Z,5.72
2023-05-05T18:33:05.173Z,6.28
2023-05-05T18:35:32.152Z,7.97
2023-05-05T18:37:59.004Z,8.38
2023-05-05T18:40:25.864Z,10.10
2023-05-05T18:42:52.846Z,10.43
2023-05-05T18:45:19.904Z,9.23
2023-05-05T18:47:46.781Z,8.27
2023-05-05T18:50:13.804Z,8.10
2023-05-05T18:52:40.711Z,7.53
2023-05-05T18:55:08.128Z,6.15
2023-05-05T18:57:35.224Z,5.90
2023-05-05T19:00:02.111Z,5.60
2023-05-05T19:02:29.115Z,4.60
2023-05-05T19:04:56.204Z,5.43
2023-05-05T19:10:10.485Z,4.60
2023-05-05T19:12:37.703Z,4.95
2023-05-05T19:15:04.799Z,4.43
2023-05-05T19:17:31.659Z,4.47
2023-05-05T19:19:59.043Z,4.65
2023-05-05T19:22:25.960Z,4.65
2023-05-05T19:24:52.803Z,4.82
2023-05-05T19:27:19.661Z,4.75
2023-05-05T19:29:49.280Z,5.10
2023-05-05T19:32:16.513Z,4.32
2023-05-05T19:34:43.915Z,5.18
2023-05-05T19:37:10.749Z,5.10
2023-05-05T19:39:37.928Z,4.50
2023-05-05T19:42:04.986Z,5.07
2023-05-05T19:44:31.816Z,4.75
2023-05-05T19:46:58.700Z,5.00
2023-05-05T19:49:25.539Z,5.03
2023-05-05T19:51:52.963Z,5.10
2023-05-05T19:54:19.873Z,4.70
2023-05-05T19:56:46.750Z,5.10
2023-05-05T19:59:13.597Z,4.80
2023-05-05T20:01:40.439Z,4.55
2023-05-05T20:04:07.492Z,4.50
2023-05-05T20:06:34.341Z,5.30
2023-05-05T20:09:02.081Z,4.60
2023-05-05T20:11:29.240Z,4.43
2023-05-05T20:13:56.978Z,4.80
2023-05-05T20:16:23.885Z,4.18
2023-05-05T20:18:51.131Z,5.00
2023-05-05T20:21:18.340Z,4.47
2023-05-05T20:23:46.016Z,4.95
2023-05-05T20:26:13.008Z,4.90
2023-05-05T20:28:43.256Z,4.85
2023-05-05T20:31:11.013Z,5.35
2023-05-05T20:33:37.915Z,4.62
2023-05-05T20:36:05.141Z,4.80
2023-05-05T20:38:31.997Z,4.95
2023-05-05T20:40:59.001Z,4.80
2023-05-05T20:43:25.906Z,5.03
2023-05-05T20:45:53.095Z,4.90
2023-05-05T20:48:19.954Z,4.93
2023-05-05T20:50:46.833Z,4.60
2023-05-05T20:53:14.015Z,4.97
2023-05-05T20:55:40.961Z,4.95
2023-05-05T20:58:07.827Z,4.75
2023-05-05T21:00:34.860Z,4.93
2023-05-05T21:03:03.002Z,5.60
2023-05-05T21:05:31.159Z,4.95
2023-05-05T21:08:00.466Z,5.10
2023-05-05T21:10:28.992Z,4.80
2023-05-05T21:12:56.032Z,5.40
2023-05-05T21:15:23.151Z,5.22
2023-05-05T21:17:50.111Z,5.90
2023-05-05T21:20:18.831Z,5.75
2023-05-05T21:22:46.034Z,5.80
2023-05-05T21:25:22.117Z,5.90
2023-05-05T21:27:49.251Z,5.40
2023-05-05T21:30:16.913Z,5.05
2023-05-05T21:32:44.465Z,5.32
2023-05-05T21:35:11.526Z,5.65
2023-05-05T21:37:41.380Z,5.03
2023-05-05T21:40:13.935Z,5.28
2023-05-05T21:42:41.689Z,5.03
2023-05-05T21:45:10.404Z,5.10
2023-05-05T21:47:37.435Z,5.32
2023-05-05T21:50:04.593Z,5.60
2023-05-05T21:52:31.634Z,5.28
2023-05-05T21:54:58.467Z,5.50
2023-05-05T21:57:25.947Z,5.00
2023-05-05T21:59:52.783Z,5.55
2023-05-05T22:02:19.709Z,5.55
2023-05-05T22:04:48.839Z,5.18
2023-05-05T22:07:15.803Z,5.45
2023-05-05T22:09:43.300Z,5.47
2023-05-05T22:12:10.232Z,5.12
2023-05-05T22:14:37.138Z,5.40
2023-05-05T22:17:04.013Z,5.50
2023-05-05T22:19:31.083Z,5.07
2023-05-05T22:21:58.886Z,5.47
2023-05-05T22:24:25.880Z,5.53
2023-05-05T22:26:53.741Z,5.47
2023-05-05T22:29:20.607Z,5.22
2023-05-05T22:31:47.601Z,5.35
2023-05-05T22:34:14.611Z,5.32
2023-05-05T22:36:42.324Z,5.15
2023-05-05T22:39:09.206Z,6.07
2023-05-05T22:41:36.087Z,5.37
2023-05-05T22:44:02.977Z,5.12
2023-05-05T22:46:29.860Z,5.47
2023-05-05T22:48:56.906Z,5.50
2023-05-05T22:51:23.845Z,5.32
2023-05-05T22:53:51.224Z,5.20
2023-05-05T22:56:18.104Z,5.60
2023-05-05T22:58:46.660Z,5.00
2023-05-05T23:01:13.666Z,4.50
2023-05-05T23:03:40.623Z,4.87
2023-05-05T23:06:07.633Z,5.37
2023-05-05T23:08:34.451Z,5.37
2023-05-05T23:11:01.304Z,5.72
2023-05-05T23:13:28.193Z,5.60
2023-05-05T23:15:55.032Z,5.20
2023-05-05T23:18:21.888Z,5.45
2023-05-05T23:20:48.722Z,6.07
2023-05-05T23:23:15.621Z,5.78
2023-05-05T23:25:42.497Z,5.15
2023-05-05T23:28:10.113Z,5.80
2023-05-05T23:30:36.994Z,5.72
2023-05-05T23:33:04.387Z,6.47
2023-05-05T23:35:31.301Z,6.37
2023-05-05T23:37:58.132Z,6.25
2023-05-05T23:40:24.981Z,6.30
2023-05-05T23:42:51.795Z,6.30
2023-05-05T23:45:19.429Z,5.65
2023-05-05T23:47:46.603Z,6.40
2023-05-05T23:50:13.528Z,5.35
2023-05-05T23:52:40.622Z,5.85
2023-05-05T23:55:08.403Z,6.32
2023-05-05T23:57:35.747Z,5.68
